sensor_id;sensor_type;location;lat;lon;timestamp;P1;durP1;ratioP1;P2;durP2;ratioP2
14125;SDS011;7141;49.484;11.242;2023-06-26T00:00:19;8.63;;;6.90;;
14125;SDS011;7141;49.484;11.242;2023-06-26T00:02:45;8.60;;;7.43;;
14125;SDS011;7141;49.484;11.242;2023-06-26T00:05:11;7.80;;;7.00;;
14125;SDS011;7141;49.484;11.242;2023-06-26T00:07:38;10.33;;;7.20;;
14125;SDS011;7141;49.484;11.242;2023-06-26T00:10:04;8.53;;;6.90;;
14125;SDS011;7141;49.484;11.242;2023-06-26T00:12:31;8.60;;;7.70;;
14125;SDS011;7141;49.484;11.242;2023-06-26T00:14:57;8.03;;;7.17;;
14125;SDS011;7141;49.484;11.242;2023-06-26T00:17:23;8.40;;;7.60;;
14125;SDS011;7141;49.484;11.242;2023-06-26T00:19:50;8.13;;;7.33;;
14125;SDS011;7141;49.484;11.242;2023-06-26T00:22:17;8.97;;;7.47;;
14125;SDS011;7141;49.484;11.242;2023-06-26T00:24:43;7.80;;;6.93;;
14125;SDS011;7141;49.484;11.242;2023-06-26T00:27:10;9.33;;;7.40;;
14125;SDS011;7141;49.484;11.242;2023-06-26T00:29:36;7.77;;;7.03;;
14125;SDS011;7141;49.484;11.242;2023-06-26T00:32:03;8.27;;;7.30;;
14125;SDS011;7141;49.484;11.242;2023-06-26T00:34:29;8.33;;;7.53;;
14125;SDS011;7141;49.484;11.242;2023-06-26T00:36:55;8.40;;;7.60;;
14125;SDS011;7141;49.484;11.242;2023-06-26T00:39:21;8.13;;;7.33;;
14125;SDS011;7141;49.484;11.242;2023-06-26T00:41:50;8.43;;;7.63;;
14125;SDS011;7141;49.484;11.242;2023-06-26T00:44:18;10.60;;;7.77;;
14125;SDS011;7141;49.484;11.242;2023-06-26T00:46:45;8.97;;;7.50;;
14125;SDS011;7141;49.484;11.242;2023-06-26T00:49:11;8.60;;;7.67;;
14125;SDS011;7141;49.484;11.242;2023-06-26T00:51:38;8.10;;;7.30;;
14125;SDS011;7141;49.484;11.242;2023-06-26T00:54:04;8.70;;;7.20;;
14125;SDS011;7141;49.484;11.242;2023-06-26T00:56:30;9.27;;;8.30;;
14125;SDS011;7141;49.484;11.242;2023-06-26T00:58:57;8.40;;;7.60;;
14125;SDS011;7141;49.484;11.242;2023-06-26T01:01:23;10.57;;;7.07;;
14125;SDS011;7141;49.484;11.242;2023-06-26T01:03:50;9.00;;;7.13;;
14125;SDS011;7141;49.484;11.242;2023-06-26T01:06:17;10.20;;;8.10;;
14125;SDS011;7141;49.484;11.242;2023-06-26T01:08:43;9.10;;;8.10;;
14125;SDS011;7141;49.484;11.242;2023-06-26T01:11:10;7.80;;;7.00;;
14125;SDS011;7141;49.484;11.242;2023-06-26T01:13:37;11.30;;;7.60;;
14125;SDS011;7141;49.484;11.242;2023-06-26T01:16:04;9.17;;;7.50;;
14125;SDS011;7141;49.484;11.242;2023-06-26T01:18:31;9.60;;;7.90;;
14125;SDS011;7141;49.484;11.242;2023-06-26T01:20:58;10.00;;;7.87;;
14125;SDS011;7141;49.484;11.242;2023-06-26T01:23:29;9.87;;;7.97;;
14125;SDS011;7141;49.484;11.242;2023-06-26T01:28:41;10.23;;;8.43;;
14125;SDS011;7141;49.484;11.242;2023-06-26T01:31:07;9.33;;;8.07;;
14125;SDS011;7141;49.484;11.242;2023-06-26T01:33:34;8.03;;;7.00;;
14125;SDS011;7141;49.484;11.242;2023-06-26T01:36:00;10.10;;;7.90;;
14125;SDS011;7141;49.484;11.242;2023-06-26T01:38:26;9.43;;;7.40;;
14125;SDS011;7141;49.484;11.242;2023-06-26T01:40:53;8.90;;;8.00;;
14125;SDS011;7141;49.484;11.242;2023-06-26T01:45:56;9.40;;;8.00;;
14125;SDS011;7141;49.484;11.242;2023-06-26T01:48:25;8.90;;;8.00;;
14125;SDS011;7141;49.484;11.242;2023-06-26T01:50:53;8.73;;;7.83;;
14125;SDS011;7141;49.484;11.242;2023-06-26T01:53:21;8.47;;;7.57;;
14125;SDS011;7141;49.484;11.242;2023-06-26T01:55:51;8.80;;;7.90;;
14125;SDS011;7141;49.484;11.242;2023-06-26T01:58:22;8.70;;;7.83;;
14125;SDS011;7141;49.484;11.242;2023-06-26T02:00:49;8.87;;;7.70;;
14125;SDS011;7141;49.484;11.242;2023-06-26T02:03:15;12.90;;;8.13;;
14125;SDS011;7141;49.484;11.242;2023-06-26T02:05:41;9.17;;;8.27;;
14125;SDS011;7141;49.484;11.242;2023-06-26T02:08:12;13.17;;;8.00;;
14125;SDS011;7141;49.484;11.242;2023-06-26T02:10:38;9.03;;;7.73;;
14125;SDS011;7141;49.484;11.242;2023-06-26T02:13:03;9.00;;;8.07;;
14125;SDS011;7141;49.484;11.242;2023-06-26T02:15:29;9.90;;;8.03;;
14125;SDS011;7141;49.484;11.242;2023-06-26T02:17:55;9.47;;;8.40;;
14125;SDS011;7141;49.484;11.242;2023-06-26T02:20:21;9.77;;;8.47;;
14125;SDS011;7141;49.484;11.242;2023-06-26T02:22:47;8.77;;;7.83;;
14125;SDS011;7141;49.484;11.242;2023-06-26T02:25:13;12.43;;;8.33;;
14125;SDS011;7141;49.484;11.242;2023-06-26T02:27:39;9.30;;;8.20;;
14125;SDS011;7141;49.484;11.242;2023-06-26T02:30:08;9.33;;;8.33;;
14125;SDS011;7141;49.484;11.242;2023-06-26T02:32:34;9.23;;;7.97;;
14125;SDS011;7141;49.484;11.242;2023-06-26T02:35:00;10.30;;;8.27;;
14125;SDS011;7141;49.484;11.242;2023-06-26T02:37:26;10.87;;;7.63;;
14125;SDS011;7141;49.484;11.242;2023-06-26T02:39:52;9.67;;;8.20;;
14125;SDS011;7141;49.484;11.242;2023-06-26T02:42:18;9.97;;;8.27;;
14125;SDS011;7141;49.484;11.242;2023-06-26T02:44:44;9.93;;;8.17;;
14125;SDS011;7141;49.484;11.242;2023-06-26T02:47:10;10.60;;;7.77;;
14125;SDS011;7141;49.484;11.242;2023-06-26T02:49:36;8.77;;;7.87;;
14125;SDS011;7141;49.484;11.242;2023-06-26T02:52:02;8.60;;;7.67;;
14125;SDS011;7141;49.484;11.242;2023-06-26T02:54:28;8.67;;;7.80;;
14125;SDS011;7141;49.484;11.242;2023-06-26T02:56:54;11.23;;;7.90;;
14125;SDS011;7141;49.484;11.242;2023-06-26T02:59:20;9.13;;;8.07;;
14125;SDS011;7141;49.484;11.242;2023-06-26T03:01:46;9.50;;;8.57;;
14125;SDS011;7141;49.484;11.242;2023-06-26T03:04:12;9.47;;;8.17;;
14125;SDS011;7141;49.484;11.242;2023-06-26T03:06:38;8.60;;;7.70;;
14125;SDS011;7141;49.484;11.242;2023-06-26T03:09:04;10.43;;;8.00;;
14125;SDS011;7141;49.484;11.242;2023-06-26T03:11:30;9.30;;;8.40;;
14125;SDS011;7141;49.484;11.242;2023-06-26T03:13:56;10.70;;;8.20;;
14125;SDS011;7141;49.484;11.242;2023-06-26T03:16:21;8.57;;;7.67;;
14125;SDS011;7141;49.484;11.242;2023-06-26T03:18:47;11.13;;;7.90;;
14125;SDS011;7141;49.484;11.242;2023-06-26T03:21:13;8.43;;;7.47;;
14125;SDS011;7141;49.484;11.242;2023-06-26T03:23:39;9.17;;;7.73;;
14125;SDS011;7141;49.484;11.242;2023-06-26T03:26:05;10.27;;;8.90;;
14125;SDS011;7141;49.484;11.242;2023-06-26T03:28:31;8.90;;;7.70;;
14125;SDS011;7141;49.484;11.242;2023-06-26T03:30:57;9.63;;;8.50;;
14125;SDS011;7141;49.484;11.242;2023-06-26T03:33:23;9.73;;;8.37;;
14125;SDS011;7141;49.484;11.242;2023-06-26T03:35:49;9.50;;;7.87;;
14125;SDS011;7141;49.484;11.242;2023-06-26T03:38:15;9.70;;;8.60;;
14125;SDS011;7141;49.484;11.242;2023-06-26T03:40:41;10.03;;;9.03;;
14125;SDS011;7141;49.484;11.242;2023-06-26T03:43:07;9.97;;;8.70;;
14125;SDS011;7141;49.484;11.242;2023-06-26T03:45:33;15.23;;;7.90;;
14125;SDS011;7141;49.484;11.242;2023-06-26T03:47:59;9.73;;;7.63;;
14125;SDS011;7141;49.484;11.242;2023-06-26T03:50:25;11.07;;;7.67;;
14125;SDS011;7141;49.484;11.242;2023-06-26T03:52:51;8.60;;;7.70;;
14125;SDS011;7141;49.484;11.242;2023-06-26T03:55:19;9.17;;;7.53;;
14125;SDS011;7141;49.484;11.242;2023-06-26T03:57:47;9.53;;;7.90;;
14125;SDS011;7141;49.484;11.242;2023-06-26T04:00:13;8.53;;;7.73;;
14125;SDS011;7141;49.484;11.242;2023-06-26T04:02:39;9.80;;;7.47;;
14125;SDS011;7141;49.484;11.242;2023-06-26T04:05:05;9.50;;;7.77;;
14125;SDS011;7141;49.484;11.242;2023-06-26T04:07:31;8.43;;;7.57;;
14125;SDS011;7141;49.484;11.242;2023-06-26T04:09:57;8.27;;;7.47;;
14125;SDS011;7141;49.484;11.242;2023-06-26T04:12:23;8.73;;;7.83;;
14125;SDS011;7141;49.484;11.242;2023-06-26T04:14:49;10.00;;;7.97;;
14125;SDS011;7141;49.484;11.242;2023-06-26T04:17:15;8.67;;;7.87;;
14125;SDS011;7141;49.484;11.242;2023-06-26T04:19:41;8.93;;;7.43;;
14125;SDS011;7141;49.484;11.242;2023-06-26T04:22:07;9.47;;;7.77;;
14125;SDS011;7141;49.484;11.242;2023-06-26T04:24:33;8.93;;;8.03;;
14125;SDS011;7141;49.484;11.242;2023-06-26T04:26:59;9.53;;;7.57;;
14125;SDS011;7141;49.484;11.242;2023-06-26T04:29:28;8.60;;;7.47;;
14125;SDS011;7141;49.484;11.242;2023-06-26T04:31:54;9.73;;;8.07;;
14125;SDS011;7141;49.484;11.242;2023-06-26T04:34:26;11.57;;;7.63;;
14125;SDS011;7141;49.484;11.242;2023-06-26T04:36:52;8.07;;;7.23;;
14125;SDS011;7141;49.484;11.242;2023-06-26T04:39:18;8.87;;;7.97;;
14125;SDS011;7141;49.484;11.242;2023-06-26T04:41:44;8.90;;;7.80;;
14125;SDS011;7141;49.484;11.242;2023-06-26T04:44:10;10.50;;;8.17;;
14125;SDS011;7141;49.484;11.242;2023-06-26T04:46:37;9.17;;;7.70;;
14125;SDS011;7141;49.484;11.242;2023-06-26T04:49:06;10.30;;;7.53;;
14125;SDS011;7141;49.484;11.242;2023-06-26T04:51:33;8.10;;;7.40;;
14125;SDS011;7141;49.484;11.242;2023-06-26T04:54:05;9.73;;;7.40;;
14125;SDS011;7141;49.484;11.242;2023-06-26T04:56:31;8.73;;;7.73;;
14125;SDS011;7141;49.484;11.242;2023-06-26T04:58:57;8.23;;;7.43;;
14125;SDS011;7141;49.484;11.242;2023-06-26T05:01:23;10.93;;;7.67;;
14125;SDS011;7141;49.484;11.242;2023-06-26T05:03:49;11.70;;;7.30;;
14125;SDS011;7141;49.484;11.242;2023-06-26T05:06:15;7.73;;;6.83;;
14125;SDS011;7141;49.484;11.242;2023-06-26T05:08:41;8.77;;;7.50;;
14125;SDS011;7141;49.484;11.242;2023-06-26T05:11:07;8.97;;;7.70;;
14125;SDS011;7141;49.484;11.242;2023-06-26T05:13:33;9.83;;;7.47;;
14125;SDS011;7141;49.484;11.242;2023-06-26T05:15:59;9.50;;;7.13;;
14125;SDS011;7141;49.484;11.242;2023-06-26T05:18:25;10.87;;;7.10;;
14125;SDS011;7141;49.484;11.242;2023-06-26T05:20:51;7.90;;;7.10;;
14125;SDS011;7141;49.484;11.242;2023-06-26T05:23:17;8.97;;;6.70;;
14125;SDS011;7141;49.484;11.242;2023-06-26T05:25:44;13.67;;;7.70;;
14125;SDS011;7141;49.484;11.242;2023-06-26T05:28:11;10.17;;;7.63;;
14125;SDS011;7141;49.484;11.242;2023-06-26T05:30:37;10.03;;;7.77;;
14125;SDS011;7141;49.484;11.242;2023-06-26T05:33:03;8.83;;;7.53;;
14125;SDS011;7141;49.484;11.242;2023-06-26T05:35:30;9.43;;;7.40;;
14125;SDS011;7141;49.484;11.242;2023-06-26T05:37:57;10.90;;;7.80;;
14125;SDS011;7141;49.484;11.242;2023-06-26T05:40:23;8.23;;;7.23;;
14125;SDS011;7141;49.484;11.242;2023-06-26T05:42:50;8.03;;;6.90;;
14125;SDS011;7141;49.484;11.242;2023-06-26T05:45:16;9.10;;;7.37;;
14125;SDS011;7141;49.484;11.242;2023-06-26T05:47:42;9.77;;;7.93;;
14125;SDS011;7141;49.484;11.242;2023-06-26T05:50:08;9.03;;;7.50;;
14125;SDS011;7141;49.484;11.242;2023-06-26T05:52:35;7.50;;;6.80;;
14125;SDS011;7141;49.484;11.242;2023-06-26T05:55:01;9.60;;;7.30;;
14125;SDS011;7141;49.484;11.242;2023-06-26T05:57:28;7.90;;;7.10;;
14125;SDS011;7141;49.484;11.242;2023-06-26T05:59:54;12.63;;;7.70;;
14125;SDS011;7141;49.484;11.242;2023-06-26T06:02:20;8.77;;;7.37;;
14125;SDS011;7141;49.484;11.242;2023-06-26T06:04:46;11.40;;;7.70;;
14125;SDS011;7141;49.484;11.242;2023-06-26T06:07:12;8.40;;;7.53;;
14125;SDS011;7141;49.484;11.242;2023-06-26T06:09:38;10.93;;;7.00;;
14125;SDS011;7141;49.484;11.242;2023-06-26T06:12:05;7.83;;;6.80;;
14125;SDS011;7141;49.484;11.242;2023-06-26T06:14:31;7.80;;;7.00;;
14125;SDS011;7141;49.484;11.242;2023-06-26T06:16:57;7.43;;;6.70;;
14125;SDS011;7141;49.484;11.242;2023-06-26T06:19:23;9.87;;;7.23;;
14125;SDS011;7141;49.484;11.242;2023-06-26T06:21:49;8.40;;;7.00;;
14125;SDS011;7141;49.484;11.242;2023-06-26T06:24:15;9.97;;;6.93;;
14125;SDS011;7141;49.484;11.242;2023-06-26T06:26:41;7.17;;;6.20;;
14125;SDS011;7141;49.484;11.242;2023-06-26T06:29:07;7.10;;;6.03;;
14125;SDS011;7141;49.484;11.242;2023-06-26T06:31:33;7.27;;;6.50;;
14125;SDS011;7141;49.484;11.242;2023-06-26T06:33:59;8.53;;;6.30;;
14125;SDS011;7141;49.484;11.242;2023-06-26T06:36:25;8.50;;;6.13;;
14125;SDS011;7141;49.484;11.242;2023-06-26T06:38:51;10.30;;;6.30;;
14125;SDS011;7141;49.484;11.242;2023-06-26T06:41:17;10.47;;;6.63;;
14125;SDS011;7141;49.484;11.242;2023-06-26T06:43:43;7.23;;;5.70;;
14125;SDS011;7141;49.484;11.242;2023-06-26T06:46:09;7.33;;;6.47;;
14125;SDS011;7141;49.484;11.242;2023-06-26T06:48:35;9.07;;;6.70;;
14125;SDS011;7141;49.484;11.242;2023-06-26T06:51:01;7.23;;;6.33;;
14125;SDS011;7141;49.484;11.242;2023-06-26T06:53:27;9.77;;;6.07;;
14125;SDS011;7141;49.484;11.242;2023-06-26T06:55:53;11.00;;;6.37;;
14125;SDS011;7141;49.484;11.242;2023-06-26T06:58:19;9.00;;;6.97;;
14125;SDS011;7141;49.484;11.242;2023-06-26T07:00:45;8.50;;;6.40;;
14125;SDS011;7141;49.484;11.242;2023-06-26T07:03:11;23.57;;;6.97;;
14125;SDS011;7141;49.484;11.242;2023-06-26T07:05:37;17.50;;;7.37;;
14125;SDS011;7141;49.484;11.242;2023-06-26T07:08:03;13.95;;;6.57;;
14125;SDS011;7141;49.484;11.242;2023-06-26T07:10:30;11.00;;;6.60;;
14125;SDS011;7141;49.484;11.242;2023-06-26T07:12:56;7.22;;;6.15;;
14125;SDS011;7141;49.484;11.242;2023-06-26T07:15:22;15.30;;;6.57;;
14125;SDS011;7141;49.484;11.242;2023-06-26T07:17:47;23.27;;;7.50;;
14125;SDS011;7141;49.484;11.242;2023-06-26T07:20:13;9.48;;;6.50;;
14125;SDS011;7141;49.484;11.242;2023-06-26T07:22:43;13.07;;;6.65;;
14125;SDS011;7141;49.484;11.242;2023-06-26T07:25:10;10.15;;;6.45;;
14125;SDS011;7141;49.484;11.242;2023-06-26T07:27:39;6.80;;;6.10;;
14125;SDS011;7141;49.484;11.242;2023-06-26T07:30:05;7.07;;;6.20;;
14125;SDS011;7141;49.484;11.242;2023-06-26T07:32:33;7.23;;;6.17;;
14125;SDS011;7141;49.484;11.242;2023-06-26T07:34:59;9.40;;;6.47;;
14125;SDS011;7141;49.484;11.242;2023-06-26T07:37:25;7.10;;;6.37;;
14125;SDS011;7141;49.484;11.242;2023-06-26T07:39:51;6.93;;;6.20;;
14125;SDS011;7141;49.484;11.242;2023-06-26T07:42:17;8.43;;;5.67;;
14125;SDS011;7141;49.484;11.242;2023-06-26T07:44:43;8.00;;;5.87;;
14125;SDS011;7141;49.484;11.242;2023-06-26T07:47:09;6.63;;;5.70;;
14125;SDS011;7141;49.484;11.242;2023-06-26T07:49:36;9.10;;;5.80;;
14125;SDS011;7141;49.484;11.242;2023-06-26T07:52:03;6.97;;;6.03;;
14125;SDS011;7141;49.484;11.242;2023-06-26T07:54:29;7.17;;;6.00;;
14125;SDS011;7141;49.484;11.242;2023-06-26T07:56:55;6.90;;;6.20;;
14125;SDS011;7141;49.484;11.242;2023-06-26T07:59:22;6.67;;;5.93;;
14125;SDS011;7141;49.484;11.242;2023-06-26T08:01:48;6.63;;;5.93;;
14125;SDS011;7141;49.484;11.242;2023-06-26T08:04:14;7.33;;;5.73;;
14125;SDS011;7141;49.484;11.242;2023-06-26T08:06:40;7.33;;;6.23;;
14125;SDS011;7141;49.484;11.242;2023-06-26T08:09:07;7.57;;;6.53;;
14125;SDS011;7141;49.484;11.242;2023-06-26T08:11:33;8.32;;;6.47;;
14125;SDS011;7141;49.484;11.242;2023-06-26T08:13:59;7.60;;;6.60;;
14125;SDS011;7141;49.484;11.242;2023-06-26T08:16:25;12.07;;;6.57;;
14125;SDS011;7141;49.484;11.242;2023-06-26T08:18:51;15.02;;;6.85;;
14125;SDS011;7141;49.484;11.242;2023-06-26T08:21:17;8.93;;;6.70;;
14125;SDS011;7141;49.484;11.242;2023-06-26T08:23:43;7.30;;;6.53;;
14125;SDS011;7141;49.484;11.242;2023-06-26T08:26:09;7.35;;;6.65;;
14125;SDS011;7141;49.484;11.242;2023-06-26T08:28:35;8.52;;;6.60;;
14125;SDS011;7141;49.484;11.242;2023-06-26T08:31:01;8.00;;;7.27;;
14125;SDS011;7141;49.484;11.242;2023-06-26T08:33:27;6.87;;;6.27;;
14125;SDS011;7141;49.484;11.242;2023-06-26T08:35:53;7.60;;;6.77;;
14125;SDS011;7141;49.484;11.242;2023-06-26T08:38:19;8.93;;;6.95;;
14125;SDS011;7141;49.484;11.242;2023-06-26T08:40:46;7.63;;;6.33;;
14125;SDS011;7141;49.484;11.242;2023-06-26T08:43:12;17.10;;;6.40;;
14125;SDS011;7141;49.484;11.242;2023-06-26T08:45:38;10.97;;;6.40;;
14125;SDS011;7141;49.484;11.242;2023-06-26T08:48:05;18.10;;;7.30;;
14125;SDS011;7141;49.484;11.242;2023-06-26T08:50:33;12.63;;;6.93;;
14125;SDS011;7141;49.484;11.242;2023-06-26T08:55:36;15.23;;;7.07;;
14125;SDS011;7141;49.484;11.242;2023-06-26T08:58:04;9.80;;;6.70;;
14125;SDS011;7141;49.484;11.242;2023-06-26T09:00:30;9.87;;;6.87;;
14125;SDS011;7141;49.484;11.242;2023-06-26T09:02:56;8.67;;;6.87;;
14125;SDS011;7141;49.484;11.242;2023-06-26T09:05:22;10.50;;;7.07;;
14125;SDS011;7141;49.484;11.242;2023-06-26T09:07:48;7.77;;;6.67;;
14125;SDS011;7141;49.484;11.242;2023-06-26T09:10:14;9.40;;;7.10;;
14125;SDS011;7141;49.484;11.242;2023-06-26T09:12:40;9.63;;;7.03;;
14125;SDS011;7141;49.484;11.242;2023-06-26T09:15:06;7.80;;;7.00;;
14125;SDS011;7141;49.484;11.242;2023-06-26T09:17:33;8.13;;;6.93;;
14125;SDS011;7141;49.484;11.242;2023-06-26T09:20:04;9.53;;;7.00;;
14125;SDS011;7141;49.484;11.242;2023-06-26T09:22:33;8.90;;;7.17;;
14125;SDS011;7141;49.484;11.242;2023-06-26T09:24:59;8.23;;;7.40;;
14125;SDS011;7141;49.484;11.242;2023-06-26T09:27:26;7.20;;;5.87;;
14125;SDS011;7141;49.484;11.242;2023-06-26T09:29:52;9.50;;;7.00;;
14125;SDS011;7141;49.484;11.242;2023-06-26T09:32:18;8.90;;;7.13;;
14125;SDS011;7141;49.484;11.242;2023-06-26T09:34:44;10.60;;;6.87;;
14125;SDS011;7141;49.484;11.242;2023-06-26T09:37:13;8.90;;;6.93;;
14125;SDS011;7141;49.484;11.242;2023-06-26T09:39:39;8.20;;;6.60;;
14125;SDS011;7141;49.484;11.242;2023-06-26T09:42:05;10.63;;;7.00;;
14125;SDS011;7141;49.484;11.242;2023-06-26T09:44:32;8.17;;;7.20;;
14125;SDS011;7141;49.484;11.242;2023-06-26T09:46:58;8.17;;;7.37;;
14125;SDS011;7141;49.484;11.242;2023-06-26T09:49:24;9.30;;;7.37;;
14125;SDS011;7141;49.484;11.242;2023-06-26T09:51:50;7.70;;;6.90;;
14125;SDS011;7141;49.484;11.242;2023-06-26T09:54:17;10.33;;;7.57;;
14125;SDS011;7141;49.484;11.242;2023-06-26T09:56:43;8.50;;;7.57;;
14125;SDS011;7141;49.484;11.242;2023-06-26T09:59:11;9.30;;;7.87;;
14125;SDS011;7141;49.484;11.242;2023-06-26T10:01:39;8.50;;;6.73;;
14125;SDS011;7141;49.484;11.242;2023-06-26T10:04:06;9.10;;;7.50;;
14125;SDS011;7141;49.484;11.242;2023-06-26T10:06:42;8.27;;;7.20;;
14125;SDS011;7141;49.484;11.242;2023-06-26T10:09:12;8.53;;;7.23;;
14125;SDS011;7141;49.484;11.242;2023-06-26T10:11:59;8.47;;;7.47;;
14125;SDS011;7141;49.484;11.242;2023-06-26T10:14:27;10.07;;;7.60;;
14125;SDS011;7141;49.484;11.242;2023-06-26T10:16:57;12.53;;;7.53;;
14125;SDS011;7141;49.484;11.242;2023-06-26T10:19:24;9.60;;;8.00;;
14125;SDS011;7141;49.484;11.242;2023-06-26T10:21:54;8.90;;;7.93;;
14125;SDS011;7141;49.484;11.242;2023-06-26T10:24:20;8.80;;;7.90;;
14125;SDS011;7141;49.484;11.242;2023-06-26T10:26:46;9.33;;;7.80;;
14125;SDS011;7141;49.484;11.242;2023-06-26T10:29:15;8.50;;;7.10;;
14125;SDS011;7141;49.484;11.242;2023-06-26T10:31:42;11.17;;;7.83;;
14125;SDS011;7141;49.484;11.242;2023-06-26T10:34:10;7.27;;;6.53;;
14125;SDS011;7141;49.484;11.242;2023-06-26T10:36:36;7.40;;;6.50;;
14125;SDS011;7141;49.484;11.242;2023-06-26T10:39:06;7.17;;;6.47;;
14125;SDS011;7141;49.484;11.242;2023-06-26T10:41:38;7.63;;;6.83;;
14125;SDS011;7141;49.484;11.242;2023-06-26T10:44:08;6.93;;;6.23;;
14125;SDS011;7141;49.484;11.242;2023-06-26T10:46:55;7.50;;;6.80;;
14125;SDS011;7141;49.484;11.242;2023-06-26T10:49:25;7.27;;;6.27;;
14125;SDS011;7141;49.484;11.242;2023-06-26T10:51:51;8.53;;;6.67;;
14125;SDS011;7141;49.484;11.242;2023-06-26T10:54:19;7.97;;;7.17;;
14125;SDS011;7141;49.484;11.242;2023-06-26T10:56:46;7.53;;;6.83;;
14125;SDS011;7141;49.484;11.242;2023-06-26T10:59:24;8.93;;;6.90;;
14125;SDS011;7141;49.484;11.242;2023-06-26T11:02:00;9.00;;;6.73;;
14125;SDS011;7141;49.484;11.242;2023-06-26T11:07:14;7.60;;;6.67;;
14125;SDS011;7141;49.484;11.242;2023-06-26T11:15:13;7.67;;;6.43;;
14125;SDS011;7141;49.484;11.242;2023-06-26T11:17:40;8.23;;;7.13;;
14125;SDS011;7141;49.484;11.242;2023-06-26T11:20:07;7.30;;;6.60;;
14125;SDS011;7141;49.484;11.242;2023-06-26T11:22:37;8.70;;;7.07;;
14125;SDS011;7141;49.484;11.242;2023-06-26T11:25:03;8.53;;;7.43;;
14125;SDS011;7141;49.484;11.242;2023-06-26T11:27:52;8.27;;;7.07;;
14125;SDS011;7141;49.484;11.242;2023-06-26T11:30:22;9.03;;;7.17;;
14125;SDS011;7141;49.484;11.242;2023-06-26T11:32:49;7.17;;;6.47;;
14125;SDS011;7141;49.484;11.242;2023-06-26T11:35:24;9.90;;;7.10;;
14125;SDS011;7141;49.484;11.242;2023-06-26T11:37:57;7.53;;;6.30;;
14125;SDS011;7141;49.484;11.242;2023-06-26T11:40:25;6.77;;;6.10;;
14125;SDS011;7141;49.484;11.242;2023-06-26T11:42:55;7.60;;;6.40;;
14125;SDS011;7141;49.484;11.242;2023-06-26T11:45:21;7.65;;;6.90;;
14125;SDS011;7141;49.484;11.242;2023-06-26T11:47:47;7.30;;;6.60;;
14125;SDS011;7141;49.484;11.242;2023-06-26T11:50:16;8.18;;;6.72;;
14125;SDS011;7141;49.484;11.242;2023-06-26T11:52:45;7.60;;;6.77;;
14125;SDS011;7141;49.484;11.242;2023-06-26T11:55:11;7.47;;;6.77;;
14125;SDS011;7141;49.484;11.242;2023-06-26T11:57:37;8.73;;;6.30;;
14125;SDS011;7141;49.484;11.242;2023-06-26T12:00:13;8.35;;;6.82;;
14125;SDS011;7141;49.484;11.242;2023-06-26T12:02:40;7.55;;;6.75;;
14125;SDS011;7141;49.484;11.242;2023-06-26T12:05:06;8.77;;;6.83;;
14125;SDS011;7141;49.484;11.242;2023-06-26T12:07:32;8.38;;;6.70;;
14125;SDS011;7141;49.484;11.242;2023-06-26T12:10:00;11.63;;;6.50;;
14125;SDS011;7141;49.484;11.242;2023-06-26T12:12:26;8.75;;;6.57;;
14125;SDS011;7141;49.484;11.242;2023-06-26T12:14:52;8.40;;;6.27;;
14125;SDS011;7141;49.484;11.242;2023-06-26T12:17:18;7.43;;;5.90;;
14125;SDS011;7141;49.484;11.242;2023-06-26T12:19:47;7.28;;;6.57;;
14125;SDS011;7141;49.484;11.242;2023-06-26T12:22:14;6.00;;;5.40;;
14125;SDS011;7141;49.484;11.242;2023-06-26T12:24:41;6.00;;;5.40;;
14125;SDS011;7141;49.484;11.242;2023-06-26T12:27:08;5.90;;;5.37;;
14125;SDS011;7141;49.484;11.242;2023-06-26T12:29:35;6.50;;;5.80;;
14125;SDS011;7141;49.484;11.242;2023-06-26T12:32:02;6.10;;;5.50;;
14125;SDS011;7141;49.484;11.242;2023-06-26T12:34:32;6.77;;;5.50;;
14125;SDS011;7141;49.484;11.242;2023-06-26T12:37:05;7.17;;;5.57;;
14125;SDS011;7141;49.484;11.242;2023-06-26T12:42:19;6.07;;;4.82;;
14125;SDS011;7141;49.484;11.242;2023-06-26T12:44:45;6.20;;;4.70;;
14125;SDS011;7141;49.484;11.242;2023-06-26T12:47:11;6.75;;;5.50;;
14125;SDS011;7141;49.484;11.242;2023-06-26T12:49:40;5.80;;;5.20;;
14125;SDS011;7141;49.484;11.242;2023-06-26T12:52:07;6.75;;;5.15;;
14125;SDS011;7141;49.484;11.242;2023-06-26T12:54:37;7.70;;;5.40;;
14125;SDS011;7141;49.484;11.242;2023-06-26T12:57:04;5.75;;;5.25;;
14125;SDS011;7141;49.484;11.242;2023-06-26T12:59:30;5.47;;;4.97;;
14125;SDS011;7141;49.484;11.242;2023-06-26T13:01:57;6.28;;;5.32;;
14125;SDS011;7141;49.484;11.242;2023-06-26T13:04:23;5.97;;;5.38;;
14125;SDS011;7141;49.484;11.242;2023-06-26T13:06:49;5.47;;;4.55;;
14125;SDS011;7141;49.484;11.242;2023-06-26T13:09:15;6.30;;;5.43;;
14125;SDS011;7141;49.484;11.242;2023-06-26T13:11:41;6.20;;;5.60;;
14125;SDS011;7141;49.484;11.242;2023-06-26T13:14:07;6.00;;;5.38;;
14125;SDS011;7141;49.484;11.242;2023-06-26T13:16:33;5.97;;;5.38;;
14125;SDS011;7141;49.484;11.242;2023-06-26T13:18:59;8.57;;;5.63;;
14125;SDS011;7141;49.484;11.242;2023-06-26T13:21:27;9.65;;;5.60;;
14125;SDS011;7141;49.484;11.242;2023-06-26T13:23:53;6.20;;;5.60;;
14125;SDS011;7141;49.484;11.242;2023-06-26T13:26:20;6.05;;;5.43;;
14125;SDS011;7141;49.484;11.242;2023-06-26T13:28:50;6.10;;;5.50;;
14125;SDS011;7141;49.484;11.242;2023-06-26T13:31:16;6.35;;;5.70;;
14125;SDS011;7141;49.484;11.242;2023-06-26T13:33:43;7.45;;;5.90;;
14125;SDS011;7141;49.484;11.242;2023-06-26T13:36:11;5.90;;;5.40;;
14125;SDS011;7141;49.484;11.242;2023-06-26T13:38:37;6.85;;;5.15;;
14125;SDS011;7141;49.484;11.242;2023-06-26T13:41:03;6.07;;;5.47;;
14125;SDS011;7141;49.484;11.242;2023-06-26T13:43:29;7.22;;;5.30;;
14125;SDS011;7141;49.484;11.242;2023-06-26T13:45:55;6.70;;;6.10;;
14125;SDS011;7141;49.484;11.242;2023-06-26T13:48:21;6.47;;;5.60;;
14125;SDS011;7141;49.484;11.242;2023-06-26T13:50:49;6.95;;;5.30;;
14125;SDS011;7141;49.484;11.242;2023-06-26T13:53:15;6.00;;;5.40;;
14125;SDS011;7141;49.484;11.242;2023-06-26T13:55:42;6.70;;;5.57;;
14125;SDS011;7141;49.484;11.242;2023-06-26T13:58:08;6.32;;;5.72;;
14125;SDS011;7141;49.484;11.242;2023-06-26T14:00:34;6.25;;;5.75;;
14125;SDS011;7141;49.484;11.242;2023-06-26T14:03:01;6.43;;;5.82;;
14125;SDS011;7141;49.484;11.242;2023-06-26T14:05:28;6.78;;;6.05;;
14125;SDS011;7141;49.484;11.242;2023-06-26T14:07:54;6.38;;;5.78;;
14125;SDS011;7141;49.484;11.242;2023-06-26T14:10:23;9.27;;;6.10;;
14125;SDS011;7141;49.484;11.242;2023-06-26T14:12:49;6.43;;;5.82;;
14125;SDS011;7141;49.484;11.242;2023-06-26T14:15:15;6.50;;;5.88;;
14125;SDS011;7141;49.484;11.242;2023-06-26T14:17:41;6.93;;;6.22;;
14125;SDS011;7141;49.484;11.242;2023-06-26T14:20:08;7.68;;;6.43;;
14125;SDS011;7141;49.484;11.242;2023-06-26T14:22:41;8.55;;;5.97;;
14125;SDS011;7141;49.484;11.242;2023-06-26T14:25:08;6.65;;;5.63;;
14125;SDS011;7141;49.484;11.242;2023-06-26T14:27:34;5.75;;;5.25;;
14125;SDS011;7141;49.484;11.242;2023-06-26T14:30:01;7.47;;;6.18;;
14125;SDS011;7141;49.484;11.242;2023-06-26T14:32:27;6.90;;;6.20;;
14125;SDS011;7141;49.484;11.242;2023-06-26T14:34:54;6.88;;;6.18;;
14125;SDS011;7141;49.484;11.242;2023-06-26T14:37:20;7.63;;;6.30;;
14125;SDS011;7141;49.484;11.242;2023-06-26T14:39:46;7.45;;;6.45;;
14125;SDS011;7141;49.484;11.242;2023-06-26T14:42:12;6.97;;;6.18;;
14125;SDS011;7141;49.484;11.242;2023-06-26T14:44:38;7.40;;;6.40;;
14125;SDS011;7141;49.484;11.242;2023-06-26T14:47:04;6.50;;;5.90;;
14125;SDS011;7141;49.484;11.242;2023-06-26T14:49:30;16.30;;;7.43;;
14125;SDS011;7141;49.484;11.242;2023-06-26T14:51:56;10.05;;;6.43;;
14125;SDS011;7141;49.484;11.242;2023-06-26T14:54:22;9.85;;;7.03;;
14125;SDS011;7141;49.484;11.242;2023-06-26T14:56:49;8.85;;;6.80;;
14125;SDS011;7141;49.484;11.242;2023-06-26T14:59:15;7.28;;;6.47;;
14125;SDS011;7141;49.484;11.242;2023-06-26T15:01:41;8.02;;;5.93;;